Time;durP1;ratioP1;P1;durP2;ratioP2;P2;SDS_P1;SDS_P2;PMS_P1;PMS_P2;Temp;Humidity;BMP_temperature;BMP_pressure;BME280_temperature;BME280_humidity;BME280_pressure;Samples;Min_cycle;Max_cycle;Signal;HPM_P1;HPM_P2
2023/11/09 00:00:11;;;;;;;5.00;1.30;;;;;;;3.55;85.12;95852.38;106715;1274;22519;-76
2023/11/09 00:02:59;;;;;;;3.60;1.20;;;;;;;3.52;84.76;95855.80;106602;1274;25501;-76
2023/11/09 00:05:27;;;;;;;3.70;1.10;;;;;;;3.47;84.65;95851.92;106741;1274;22759;-76
2023/11/09 00:07:55;;;;;;;2.70;1.20;;;;;;;3.39;84.80;95858.44;106734;1274;22632;-76
2023/11/09 00:10:23;;;;;;;4.30;1.20;;;;;;;3.31;85.04;95860.23;106662;1274;22546;-76
2023/11/09 00:12:53;;;;;;;2.00;0.80;;;;;;;3.33;85.74;95863.20;106624;1274;22563;-76
2023/11/09 00:15:21;;;;;;;2.10;0.90;;;;;;;3.42;85.87;95863.50;106781;1274;25446;-76
2023/11/09 00:17:49;;;;;;;4.90;1.10;;;;;;;3.42;85.29;95866.30;106755;1274;22526;-76
2023/11/09 00:20:19;;;;;;;1.10;0.80;;;;;;;3.32;84.85;95864.42;106805;1274;22925;-76
2023/11/09 00:22:48;;;;;;;4.70;1.00;;;;;;;3.23;85.22;95869.69;106822;1274;25249;-76
2023/11/09 00:25:17;;;;;;;2.90;1.20;;;;;;;3.15;85.27;95870.59;106789;1274;22524;-76
2023/11/09 00:27:46;;;;;;;2.30;0.90;;;;;;;3.02;85.52;95868.16;106836;1274;22539;-76
2023/11/09 00:30:14;;;;;;;2.30;1.60;;;;;;;2.91;85.24;95868.52;106779;1274;25643;-76
2023/11/09 00:32:42;;;;;;;2.20;1.40;;;;;;;2.88;85.63;95866.22;106630;1274;24512;-76
2023/11/09 00:35:10;;;;;;;1.20;0.90;;;;;;;2.88;85.71;95865.50;106782;1274;22529;-76
2023/11/09 00:37:39;;;;;;;3.40;1.40;;;;;;;2.87;85.62;95871.56;106554;1274;22641;-76
2023/11/09 00:40:10;;;;;;;2.30;1.00;;;;;;;2.84;85.52;95869.09;106690;1274;25368;-76
2023/11/09 00:42:39;;;;;;;3.60;1.80;;;;;;;2.74;85.54;95871.54;106757;1274;24331;-76
2023/11/09 00:45:08;;;;;;;3.60;1.50;;;;;;;2.63;85.71;95876.92;107056;1272;22543;-76
2023/11/09 00:47:36;;;;;;;3.00;1.30;;;;;;;2.52;85.60;95882.66;106892;1274;24263;-76
2023/11/09 00:50:05;;;;;;;3.60;1.50;;;;;;;2.47;86.41;95883.95;106624;1274;23272;-76
2023/11/09 00:52:33;;;;;;;6.60;1.90;;;;;;;2.40;86.58;95884.88;106874;1274;25423;-76
2023/11/09 00:55:02;;;;;;;1.50;1.10;;;;;;;2.35;86.22;95886.87;106782;1274;22524;-76
2023/11/09 00:57:32;;;;;;;3.00;1.20;;;;;;;2.33;86.25;95882.15;106788;1274;25400;-76
2023/11/09 01:00:00;;;;;;;1.40;1.10;;;;;;;2.33;86.82;95883.20;106820;1274;25996;-76
2023/11/09 01:02:34;;;;;;;1.70;1.30;;;;;;;2.27;86.32;95883.61;106797;1274;25367;-76
2023/11/09 01:05:03;;;;;;;2.70;1.20;;;;;;;2.23;86.07;95879.88;106798;1274;22690;-76
2023/11/09 01:07:31;;;;;;;2.20;1.60;;;;;;;2.22;86.70;95878.30;106837;1274;22516;-76
2023/11/09 01:10:00;;;;;;;2.80;1.60;;;;;;;2.18;86.92;95876.33;106661;1274;22790;-76
2023/11/09 01:12:28;;;;;;;2.30;1.60;;;;;;;2.16;87.29;95874.39;106560;1274;22744;-76
2023/11/09 01:14:56;;;;;;;2.70;1.80;;;;;;;2.15;87.20;95872.63;106802;1273;26651;-77
2023/11/09 01:17:27;;;;;;;4.20;1.60;;;;;;;2.10;86.63;95875.85;106784;1274;22549;-77
2023/11/09 01:19:56;;;;;;;3.60;1.70;;;;;;;2.08;87.05;95877.00;106740;1274;22612;-76
2023/11/09 01:22:25;;;;;;;2.40;1.20;;;;;;;2.03;86.49;95882.11;106816;1274;22531;-76
2023/11/09 01:24:54;;;;;;;1.50;1.30;;;;;;;1.97;86.81;95879.59;106795;1274;23273;-77
2023/11/09 01:27:22;;;;;;;4.30;1.50;;;;;;;1.99;87.39;95883.78;106797;1274;22700;-76
2023/11/09 01:29:50;;;;;;;4.90;1.20;;;;;;;2.04;87.65;95884.23;106760;1274;22523;-77
2023/11/09 01:32:18;;;;;;;3.10;1.30;;;;;;;2.13;87.73;95882.11;106645;1274;25250;-76
2023/11/09 01:34:46;;;;;;;2.90;1.60;;;;;;;2.11;87.62;95887.13;106717;1274;25434;-76
2023/11/09 01:37:14;;;;;;;4.40;1.40;;;;;;;2.18;87.67;95884.48;106797;1274;25717;-77
2023/11/09 01:39:44;;;;;;;2.60;1.50;;;;;;;2.22;87.52;95884.73;106766;1274;24333;-77
2023/11/09 01:42:13;;;;;;;3.30;1.50;;;;;;;2.22;86.66;95886.11;106851;1274;24341;-77
2023/11/09 01:44:41;;;;;;;2.90;1.60;;;;;;;2.25;87.10;95886.86;106848;1262;22530;-77
2023/11/09 01:47:10;;;;;;;1.80;1.20;;;;;;;2.33;86.80;95886.48;106903;1274;25423;-76
2023/11/09 01:49:39;;;;;;;5.10;2.00;;;;;;;2.32;86.17;95885.60;106670;1274;22751;-77
2023/11/09 01:52:07;;;;;;;4.40;1.50;;;;;;;2.27;86.25;95883.95;106839;1274;22549;-77
2023/11/09 01:54:37;;;;;;;3.90;1.90;;;;;;;2.17;85.72;95883.60;106581;1274;25260;-77
2023/11/09 01:57:06;;;;;;;2.30;1.50;;;;;;;2.05;85.82;95885.80;106735;1274;22580;-77
2023/11/09 01:59:38;;;;;;;5.60;2.00;;;;;;;1.96;85.65;95889.09;106716;1274;22642;-77
2023/11/09 02:02:07;;;;;;;6.40;3.10;;;;;;;1.89;86.40;95887.92;106803;1274;22520;-76
2023/11/09 02:04:35;;;;;;;4.60;2.90;;;;;;;1.89;86.26;95883.77;106537;1274;25512;-77
2023/11/09 02:07:05;;;;;;;4.20;1.70;;;;;;;1.79;85.80;95892.59;106640;1274;22511;-76
2023/11/09 02:09:33;;;;;;;4.30;2.50;;;;;;;1.67;86.56;95893.56;106789;1274;23897;-76
2023/11/09 02:12:01;;;;;;;4.70;2.80;;;;;;;1.62;86.76;95902.47;106815;1274;25416;-76
2023/11/09 02:14:29;;;;;;;4.20;2.70;;;;;;;1.57;86.71;95904.09;106682;1262;22773;-76
2023/11/09 02:16:59;;;;;;;3.80;2.80;;;;;;;1.53;87.18;95900.55;106826;1274;22641;-76
2023/11/09 02:19:29;;;;;;;3.90;2.40;;;;;;;1.50;87.76;95908.80;106803;1274;22526;-77
2023/11/09 02:21:59;;;;;;;4.30;3.00;;;;;;;1.43;87.54;95903.12;106722;1274;23894;-76
2023/11/09 02:24:27;;;;;;;3.80;2.40;;;;;;;1.35;87.05;95906.94;106840;1274;24464;-76
2023/11/09 02:26:55;;;;;;;4.20;2.80;;;;;;;1.28;87.68;95910.41;106811;1274;22693;-76
2023/11/09 02:29:25;;;;;;;5.00;2.90;;;;;;;1.20;87.28;95907.97;106707;1274;24255;-77
2023/11/09 02:31:53;;;;;;;5.80;3.10;;;;;;;1.15;87.83;95909.60;106611;1274;24357;-76
2023/11/09 02:34:24;;;;;;;4.50;3.10;;;;;;;1.12;88.25;95911.09;106699;1274;22641;-77
2023/11/09 02:36:53;;;;;;;3.70;2.50;;;;;;;1.09;87.84;95912.07;106857;1274;22537;-77
2023/11/09 02:39:21;;;;;;;4.60;1.90;;;;;;;1.11;87.92;95908.11;106754;1274;22535;-77
2023/11/09 02:41:49;;;;;;;3.60;2.20;;;;;;;1.12;87.69;95906.59;106804;1274;25368;-76
2023/11/09 02:44:18;;;;;;;3.10;2.10;;;;;;;1.15;88.14;95908.56;106801;1274;23928;-76
2023/11/09 02:46:46;;;;;;;5.20;3.50;;;;;;;1.17;88.15;95909.65;106829;1274;22524;-76
2023/11/09 02:49:14;;;;;;;8.80;4.50;;;;;;;1.13;87.55;95910.23;106778;1274;24503;-76
2023/11/09 02:51:42;;;;;;;5.20;3.20;;;;;;;1.11;87.87;95912.45;106781;1274;22603;-76
2023/11/09 02:54:10;;;;;;;6.50;2.90;;;;;;;1.11;87.91;95914.36;106813;1274;24373;-76
2023/11/09 02:56:39;;;;;;;4.10;2.30;;;;;;;1.10;87.53;95917.96;106648;1274;24216;-76
2023/11/09 02:59:07;;;;;;;6.10;3.20;;;;;;;1.06;87.84;95914.77;106806;1274;23913;-76
2023/11/09 03:01:35;;;;;;;25.90;13.10;;;;;;;1.05;88.03;95919.93;106668;1274;24359;-76
2023/11/09 03:04:03;;;;;;;22.50;13.80;;;;;;;1.03;87.75;95919.73;106745;1274;22539;-77
2023/11/09 03:06:32;;;;;;;21.10;12.80;;;;;;;1.01;87.52;95924.17;106836;1274;24421;-76
2023/11/09 03:09:00;;;;;;;21.10;12.50;;;;;;;1.02;88.07;95925.09;106670;1274;24251;-76
2023/11/09 03:11:29;;;;;;;17.10;11.10;;;;;;;1.04;87.74;95927.20;106684;1274;23887;-76
2023/11/09 03:13:57;;;;;;;3.80;3.20;;;;;;;1.00;87.41;95923.81;106653;1274;25491;-77
2023/11/09 03:16:26;;;;;;;4.60;3.40;;;;;;;0.98;87.48;95922.89;106638;1273;22582;-76
2023/11/09 03:18:55;;;;;;;14.80;9.90;;;;;;;0.93;87.45;95925.02;106828;1274;24254;-76
2023/11/09 03:21:23;;;;;;;18.10;10.30;;;;;;;0.92;87.59;95921.02;106575;1274;22524;-77
2023/11/09 03:23:51;;;;;;;13.60;7.80;;;;;;;0.96;87.82;95918.88;106665;1274;23916;-77
2023/11/09 03:26:20;;;;;;;8.00;4.20;;;;;;;0.96;87.19;95918.35;106867;1274;22527;-76
2023/11/09 03:28:48;;;;;;;2.90;1.40;;;;;;;1.01;87.68;95917.59;106833;1274;25231;-76
2023/11/09 03:31:16;;;;;;;3.40;2.00;;;;;;;1.02;87.54;95916.05;106888;1252;22525;-76
2023/11/09 03:33:44;;;;;;;14.50;8.70;;;;;;;1.02;87.70;95915.55;106820;1274;22628;-76
2023/11/09 03:36:18;;;;;;;11.30;7.30;;;;;;;1.09;87.39;95920.55;106750;1274;25522;-77
2023/11/09 03:38:48;;;;;;;12.50;7.60;;;;;;;1.01;86.18;95920.02;106774;1274;22531;-76
2023/11/09 03:41:17;;;;;;;4.80;3.50;;;;;;;0.91;86.87;95922.73;106696;1274;22639;-76
2023/11/09 03:43:45;;;;;;;5.10;2.70;;;;;;;0.86;86.74;95922.78;106785;1274;22579;-77
2023/11/09 03:46:14;;;;;;;4.10;1.60;;;;;;;0.87;87.34;95922.63;106706;1274;24286;-76
2023/11/09 03:48:42;;;;;;;4.30;3.00;;;;;;;0.87;87.26;95925.75;106815;1274;24305;-76
2023/11/09 03:51:11;;;;;;;10.40;4.40;;;;;;;0.80;87.02;95927.50;106744;1274;24277;-76
2023/11/09 03:53:40;;;;;;;10.40;5.90;;;;;;;0.76;86.91;95929.29;106691;1274;25538;-76
2023/11/09 03:56:08;;;;;;;3.40;1.90;;;;;;;0.71;86.69;95926.58;106825;1274;22799;-77
2023/11/09 03:58:36;;;;;;;3.50;1.60;;;;;;;0.73;87.36;95923.34;106815;1274;22546;-76
2023/11/09 04:01:05;;;;;;;2.00;1.70;;;;;;;0.80;87.69;95923.69;106823;1274;24472;-75
2023/11/09 04:03:33;;;;;;;3.80;1.70;;;;;;;0.78;87.12;95921.39;106640;1274;22571;-76
2023/11/09 04:06:01;;;;;;;4.80;2.50;;;;;;;0.65;86.74;95919.67;106665;1274;24094;-76
2023/11/09 04:08:29;;;;;;;5.20;3.30;;;;;;;0.49;86.66;95919.63;107102;1271;22647;-77
2023/11/09 04:10:58;;;;;;;4.50;2.80;;;;;;;0.34;86.88;95920.27;107080;1274;24275;-77
2023/11/09 04:13:26;;;;;;;3.80;2.90;;;;;;;0.25;87.49;95922.10;107068;1274;22514;-77
2023/11/09 04:15:54;;;;;;;6.00;3.80;;;;;;;0.17;87.37;95922.09;106967;1274;23420;-77
2023/11/09 04:18:25;;;;;;;4.20;3.10;;;;;;;0.13;87.60;95921.30;106974;1274;22531;-76
2023/11/09 04:20:53;;;;;;;5.30;3.50;;;;;;;0.11;87.93;95919.33;107020;1274;24293;-76
2023/11/09 04:23:22;;;;;;;5.40;3.70;;;;;;;0.08;88.29;95925.64;106768;1274;24227;-77
2023/11/09 04:25:51;;;;;;;6.40;3.50;;;;;;;0.07;88.83;95927.00;106671;1274;22510;-77
2023/11/09 04:28:20;;;;;;;2.60;2.20;;;;;;;0.07;88.92;95927.17;106803;1274;22520;-77
2023/11/09 04:30:51;;;;;;;9.50;4.00;;;;;;;0.04;88.90;95927.27;106766;1274;22507;-77
2023/11/09 04:33:19;;;;;;;8.90;6.30;;;;;;;0.04;88.69;95927.09;107041;1273;25431;-77
2023/11/09 04:35:48;;;;;;;10.50;6.70;;;;;;;0.02;88.53;95924.95;106932;1274;22573;-77
2023/11/09 04:38:17;;;;;;;13.70;8.60;;;;;;;0.00;89.24;95932.36;106720;1274;22527;-77
2023/11/09 04:40:46;;;;;;;11.90;7.50;;;;;;;-0.01;89.34;95935.10;106788;1274;22524;-77
2023/11/09 04:43:15;;;;;;;12.40;8.00;;;;;;;-0.02;89.46;95928.31;106709;1274;23916;-77
2023/11/09 04:45:45;;;;;;;12.90;7.90;;;;;;;-0.02;89.23;95931.44;106676;1274;23879;-78
2023/11/09 04:48:19;;;;;;;9.70;7.00;;;;;;;-0.05;88.50;95935.17;106513;1274;25413;-77
2023/11/09 04:50:55;;;;;;;14.10;7.70;;;;;;;-0.05;88.35;95939.98;107133;1274;22528;-77
2023/11/09 04:53:40;;;;;;;62.70;32.50;;;;;;;-0.05;88.28;95942.09;107053;1274;25250;-77
2023/11/09 04:56:19;;;;;;;85.60;40.70;;;;;;;-0.02;88.65;95943.89;106799;1274;22515;-78
2023/11/09 04:58:48;;;;;;;83.00;37.30;;;;;;;0.05;88.66;95948.92;106759;1274;24255;-77
2023/11/09 05:06:52;;;;;;;4.10;3.10;;;;;;;0.14;88.44;95964.75;106744;1274;22510;-77
2023/11/09 05:09:23;;;;;;;3.60;2.30;;;;;;;0.25;88.63;95962.08;106548;1274;22594;-77
2023/11/09 05:11:52;;;;;;;6.00;4.10;;;;;;;0.29;88.15;95962.02;106868;1274;22531;-77
2023/11/09 05:14:20;;;;;;;26.60;15.60;;;;;;;0.25;87.56;95962.79;106723;1274;22519;-77
2023/11/09 05:16:48;;;;;;;19.60;12.60;;;;;;;0.18;87.10;95959.30;106845;1274;25575;-76
2023/11/09 05:19:17;;;;;;;20.60;11.70;;;;;;;0.10;87.53;95966.52;106743;1274;24281;-77
2023/11/09 05:21:45;;;;;;;23.20;14.00;;;;;;;0.09;88.05;95966.13;106819;1274;25961;-77
2023/11/09 05:24:14;;;;;;;38.30;21.40;;;;;;;0.14;88.08;95968.02;106671;1274;22553;-77
2023/11/09 05:26:42;;;;;;;41.50;19.90;;;;;;;0.12;87.67;95965.88;106714;1274;22535;-77
2023/11/09 05:29:11;;;;;;;29.50;17.20;;;;;;;0.13;87.50;95966.45;106654;1274;25693;-77
2023/11/09 05:31:39;;;;;;;29.70;16.20;;;;;;;0.13;87.61;95970.23;106718;1274;25812;-76
2023/11/09 05:34:08;;;;;;;32.40;18.50;;;;;;;0.06;87.31;95970.23;106547;1274;24220;-78
2023/11/09 05:36:36;;;;;;;28.10;16.70;;;;;;;0.09;87.89;95968.05;106820;1274;25442;-78
2023/11/09 05:39:04;;;;;;;30.10;16.00;;;;;;;0.05;87.26;95971.56;106760;1274;22576;-77
2023/11/09 05:41:34;;;;;;;23.60;13.10;;;;;;;-0.02;87.88;95973.80;106775;1274;22489;-77
2023/11/09 05:44:03;;;;;;;21.00;10.80;;;;;;;-0.04;88.33;95977.19;106830;1274;22537;-78
2023/11/09 05:46:31;;;;;;;23.80;12.40;;;;;;;-0.06;88.59;95983.73;106713;1274;25525;-77
2023/11/09 05:48:59;;;;;;;18.70;10.30;;;;;;;-0.04;88.54;95986.88;106778;1274;22513;-77
2023/11/09 05:51:28;;;;;;;12.70;8.50;;;;;;;-0.05;88.14;95986.69;106720;1274;24206;-77
2023/11/09 05:53:57;;;;;;;16.70;9.60;;;;;;;-0.10;87.96;95992.23;106665;1274;25270;-76
2023/11/09 05:56:28;;;;;;;19.80;11.60;;;;;;;-0.13;88.64;95994.73;106859;1274;22580;-76
2023/11/09 05:58:56;;;;;;;25.10;13.10;;;;;;;-0.11;88.74;95994.47;106782;1274;24263;-77
2023/11/09 06:01:30;;;;;;;27.80;14.60;;;;;;;-0.11;88.75;95995.84;106994;1274;22567;-77
2023/11/09 06:04:00;;;;;;;21.10;12.50;;;;;;;-0.10;89.15;95993.46;106936;1274;22747;-76
2023/11/09 06:06:29;;;;;;;31.10;17.50;;;;;;;-0.05;89.97;95998.10;106905;1274;22522;-76
2023/11/09 06:08:59;;;;;;;29.20;17.10;;;;;;;-0.00;89.65;96002.91;106911;1274;25392;-76
2023/11/09 06:11:31;;;;;;;22.50;12.40;;;;;;;0.04;89.44;96006.80;106882;1274;25498;-77
2023/11/09 06:14:03;;;;;;;23.70;14.70;;;;;;;0.04;88.82;96010.11;106980;1274;22514;-77
2023/11/09 06:16:33;;;;;;;17.60;9.50;;;;;;;0.01;88.81;96010.21;106970;1274;24209;-78
2023/11/09 06:19:02;;;;;;;20.30;12.50;;;;;;;-0.00;89.15;96016.56;107866;1274;22520;-76
2023/11/09 06:21:31;;;;;;;23.70;15.00;;;;;;;0.05;89.33;96017.58;107024;1262;25435;-76
2023/11/09 06:23:59;;;;;;;30.60;19.90;;;;;;;0.12;89.36;96022.64;106938;1274;22534;-78
2023/11/09 06:26:27;;;;;;;52.60;34.20;;;;;;;0.23;89.54;96023.45;106918;1274;22533;-78
2023/11/09 06:28:55;;;;;;;41.20;24.10;;;;;;;0.30;89.54;96019.84;106804;1274;22531;-78
2023/11/09 06:31:23;;;;;;;40.00;25.50;;;;;;;0.41;89.96;96022.04;107175;1274;22527;-76
2023/11/09 06:33:53;;;;;;;29.90;17.00;;;;;;;0.53;89.96;96023.21;106826;1274;24380;-77
2023/11/09 06:36:22;;;;;;;43.10;28.50;;;;;;;0.62;89.62;96018.27;106777;1274;22613;-77
2023/11/09 06:38:50;;;;;;;53.90;31.40;;;;;;;0.70;89.26;96018.66;106926;1272;24276;-76
2023/11/09 06:41:19;;;;;;;58.50;35.10;;;;;;;0.81;89.96;96013.05;106868;1274;22539;-75
2023/11/09 06:43:47;;;;;;;50.10;32.40;;;;;;;1.02;90.20;96010.46;106900;1274;22527;-74
2023/11/09 06:46:15;;;;;;;50.30;33.70;;;;;;;1.21;89.40;96010.41;106806;1274;22531;-74
2023/11/09 06:48:43;;;;;;;40.30;25.00;;;;;;;1.35;88.91;96005.36;106845;1274;22556;-75
2023/11/09 06:51:11;;;;;;;45.90;30.90;;;;;;;1.51;88.51;96012.16;106827;1274;25501;-74
2023/11/09 06:53:39;;;;;;;45.90;28.40;;;;;;;1.67;88.61;96011.81;106865;1274;22513;-74
2023/11/09 06:56:08;;;;;;;42.40;30.00;;;;;;;1.87;88.66;96012.77;106963;1274;25428;-74
2023/11/09 06:58:36;;;;;;;30.50;20.90;;;;;;;2.03;88.45;96013.47;106965;1274;23021;-77
2023/11/09 07:01:04;;;;;;;26.50;17.50;;;;;;;2.18;88.06;96015.67;107119;1274;22772;-75
2023/11/09 07:03:32;;;;;;;22.50;15.30;;;;;;;2.29;87.76;96015.55;106771;1274;25491;-76
2023/11/09 07:06:01;;;;;;;29.60;18.40;;;;;;;2.41;87.31;96017.88;107167;1268;22527;-77
2023/11/09 07:08:29;;;;;;;48.80;29.20;;;;;;;2.50;87.15;96018.23;107229;1274;22519;-78
2023/11/09 07:10:58;;;;;;;28.60;18.20;;;;;;;2.62;87.25;96012.91;107288;1274;22525;-77
2023/11/09 07:13:26;;;;;;;27.20;18.30;;;;;;;2.71;86.60;96014.82;107035;1274;22568;-76
2023/11/09 07:15:54;;;;;;;31.60;18.30;;;;;;;2.80;86.22;96016.02;106801;1274;24527;-76
2023/11/09 07:18:23;;;;;;;27.50;16.20;;;;;;;2.82;85.68;96014.48;106789;1274;22643;-76
2023/11/09 07:20:51;;;;;;;20.50;11.10;;;;;;;2.85;86.10;96018.19;106949;1274;22539;-77
2023/11/09 07:23:34;;;;;;;20.10;10.70;;;;;;;2.95;86.53;96013.84;107295;1274;22579;-79
2023/11/09 07:26:04;;;;;;;28.20;17.80;;;;;;;3.05;86.15;96015.05;106977;1274;22620;-76
2023/11/09 07:28:33;;;;;;;21.70;14.90;;;;;;;3.11;86.10;96012.04;107116;1274;25332;-77
2023/11/09 07:31:01;;;;;;;16.30;11.20;;;;;;;3.16;86.33;96010.73;106955;1274;22549;-75
2023/11/09 07:33:29;;;;;;;18.00;11.30;;;;;;;3.29;86.68;96012.50;107025;1274;22635;-76
2023/11/09 07:35:59;;;;;;;53.40;31.40;;;;;;;3.44;86.74;96012.21;107000;1265;25393;-76
2023/11/09 07:38:27;;;;;;;23.70;14.80;;;;;;;3.57;86.80;96009.11;107181;1274;24228;-76
2023/11/09 07:40:55;;;;;;;22.80;14.30;;;;;;;3.67;86.59;96006.65;107124;1265;22610;-77
2023/11/09 07:43:25;;;;;;;20.20;12.60;;;;;;;3.79;86.43;96010.48;107144;1274;24333;-77
2023/11/09 07:45:54;;;;;;;24.70;15.70;;;;;;;3.89;86.65;96008.71;107118;1274;22521;-75
2023/11/09 07:48:24;;;;;;;29.90;13.80;;;;;;;4.03;86.57;96009.41;107094;1274;23440;-77
2023/11/09 07:50:52;;;;;;;25.80;13.00;;;;;;;4.21;86.49;96010.69;107046;1274;22639;-75
2023/11/09 07:53:21;;;;;;;27.70;14.90;;;;;;;4.39;86.58;96007.08;107082;1274;25383;-75
2023/11/09 07:55:49;;;;;;;23.30;12.30;;;;;;;4.56;86.46;96004.14;107056;1274;22901;-75
2023/11/09 07:58:19;;;;;;;32.20;16.70;;;;;;;4.74;86.46;95998.95;106986;1274;22526;-76
2023/11/09 08:00:50;;;;;;;18.10;11.20;;;;;;;4.91;86.12;95994.92;106909;1274;24532;-76
2023/11/09 08:03:18;;;;;;;16.90;9.40;;;;;;;5.06;85.76;96000.29;106970;1274;23738;-76
2023/11/09 08:05:46;;;;;;;28.70;15.10;;;;;;;5.26;85.42;95999.95;106870;1274;24369;-76
2023/11/09 08:08:16;;;;;;;21.10;11.70;;;;;;;5.51;86.12;96002.60;106862;1274;22651;-76
2023/11/09 08:10:45;;;;;;;17.50;9.90;;;;;;;5.76;86.05;96001.03;106915;1274;25297;-77
2023/11/09 08:13:13;;;;;;;16.80;10.20;;;;;;;5.99;85.77;96001.19;106944;1274;23355;-78
2023/11/09 08:15:41;;;;;;;11.80;7.20;;;;;;;6.11;84.72;95998.81;106871;1274;22530;-75
2023/11/09 08:18:10;;;;;;;14.70;7.80;;;;;;;6.13;83.95;95999.87;106833;1263;25233;-77
2023/11/09 08:20:38;;;;;;;11.40;6.80;;;;;;;6.11;83.27;95999.02;107127;1274;22665;-77
2023/11/09 08:23:08;;;;;;;11.90;7.40;;;;;;;6.10;83.47;95998.80;107187;1274;22739;-77
2023/11/09 08:25:37;;;;;;;11.60;5.40;;;;;;;6.26;84.53;95993.83;107202;1274;25513;-78
2023/11/09 08:28:05;;;;;;;10.40;5.50;;;;;;;6.54;84.31;95989.73;107082;1274;22513;-77
2023/11/09 08:30:33;;;;;;;16.90;6.00;;;;;;;6.83;84.56;95988.78;107169;1274;22510;-78
2023/11/09 08:33:04;;;;;;;13.40;6.50;;;;;;;7.12;84.23;95990.58;107105;1274;25284;-79
2023/11/09 08:35:33;;;;;;;17.90;9.60;;;;;;;7.37;82.02;95990.59;107175;1274;24940;-77
2023/11/09 08:38:01;;;;;;;16.20;7.50;;;;;;;7.55;79.84;95987.96;107224;1274;24324;-77
2023/11/09 08:40:29;;;;;;;16.50;6.80;;;;;;;7.73;80.00;95988.30;107057;1274;24208;-77
2023/11/09 08:42:58;;;;;;;10.90;5.70;;;;;;;7.91;78.33;95987.04;107086;1274;22643;-77
2023/11/09 08:45:28;;;;;;;13.80;4.40;;;;;;;8.07;77.46;95986.30;107101;1274;22510;-77
2023/11/09 08:47:58;;;;;;;11.90;4.20;;;;;;;8.24;76.90;95988.70;106931;1263;22631;-78
2023/11/09 08:50:28;;;;;;;16.50;10.40;;;;;;;8.40;75.04;95988.14;106855;1274;22548;-78
2023/11/09 08:52:58;;;;;;;16.60;9.30;;;;;;;8.56;75.82;95987.03;106891;1274;23388;-78
2023/11/09 08:55:28;;;;;;;8.90;5.30;;;;;;;8.73;74.41;95984.86;106813;1274;24242;-77
2023/11/09 08:57:58;;;;;;;27.10;15.00;;;;;;;8.86;73.37;95984.79;106781;1274;22613;-77
2023/11/09 09:00:31;;;;;;;9.60;4.60;;;;;;;8.96;73.41;95985.08;107709;1274;24220;-77
2023/11/09 09:03:01;;;;;;;6.30;4.20;;;;;;;9.15;71.33;95980.21;106883;1274;22637;-77
2023/11/09 09:05:30;;;;;;;9.50;5.40;;;;;;;9.32;68.01;95979.75;107311;1274;25361;-79
2023/11/09 09:07:59;;;;;;;10.30;6.40;;;;;;;9.42;65.84;95979.48;106913;1275;22583;-79
2023/11/09 09:10:30;;;;;;;8.90;5.60;;;;;;;9.59;64.65;95974.61;106823;1274;22628;-79
2023/11/09 09:13:00;;;;;;;1.60;1.10;;;;;;;9.77;63.35;95974.98;107178;1274;22540;-78
2023/11/09 09:15:29;;;;;;;1.60;0.60;;;;;;;9.92;60.51;95964.29;106863;1274;22542;-77
2023/11/09 09:17:58;;;;;;;1.60;0.80;;;;;;;10.07;61.38;95963.95;106794;1274;24292;-79
2023/11/09 09:20:27;;;;;;;3.00;1.10;;;;;;;10.14;58.99;95963.34;107021;1274;23190;-78
2023/11/09 09:22:59;;;;;;;5.80;3.70;;;;;;;10.21;59.20;95957.29;107053;1275;22682;-77
2023/11/09 09:25:29;;;;;;;3.90;1.90;;;;;;;10.13;58.39;95954.21;107360;1274;24368;-78
2023/11/09 09:28:01;;;;;;;5.30;1.80;;;;;;;9.88;57.14;95966.61;107099;1274;25259;-79
2023/11/09 09:30:30;;;;;;;15.20;4.60;;;;;;;9.61;56.57;95965.11;107196;1274;22533;-79
2023/11/09 09:32:59;;;;;;;19.70;5.30;;;;;;;9.54;57.24;95962.36;107083;1274;22627;-79
2023/11/09 09:35:29;;;;;;;6.20;2.80;;;;;;;9.75;58.55;95964.63;107074;1274;24244;-79
2023/11/09 09:38:11;;;;;;;4.70;1.50;;;;;;;9.88;58.00;95962.39;107132;1275;25372;-78
2023/11/09 09:40:40;;;;;;;2.30;0.60;;;;;;;9.97;57.42;95958.95;107230;1274;22524;-79
2023/11/09 09:43:22;;;;;;;5.70;3.60;;;;;;;9.86;57.26;95969.10;107135;1274;22988;-79
2023/11/09 09:45:56;;;;;;;;;;;;;;;9.81;59.38;95972.30;106961;1274;23096;-77
2023/11/09 09:48:29;;;;;;;2.30;1.20;;;;;;;9.94;60.42;95968.84;106793;1275;24265;-79
2023/11/09 09:50:58;;;;;;;2.50;1.60;;;;;;;9.93;56.75;95972.36;107246;1275;22532;-79
2023/11/09 09:53:30;;;;;;;1.50;0.40;;;;;;;10.07;55.92;95965.36;107360;1275;24241;-79
2023/11/09 09:55:59;;;;;;;1.00;0.70;;;;;;;10.02;52.69;95963.13;106897;1274;22536;-82
2023/11/09 09:58:27;;;;;;;1.00;0.60;;;;;;;10.50;54.16;95962.44;107124;1275;24220;-80
2023/11/09 10:00:59;;;;;;;1.00;0.40;;;;;;;10.88;52.44;95961.06;107093;1275;22545;-80
2023/11/09 10:03:32;;;;;;;1.10;0.70;;;;;;;11.03;51.89;95959.96;106942;1274;22527;-79
2023/11/09 10:06:00;;;;;;;1.60;1.10;;;;;;;10.89;50.83;95958.77;106964;1274;22636;-78
2023/11/09 10:08:29;;;;;;;1.70;1.10;;;;;;;10.83;52.96;95958.48;106768;1274;22632;-78
2023/11/09 10:10:58;;;;;;;1.10;0.60;;;;;;;10.79;53.33;95956.61;106816;1275;22548;-77
2023/11/09 10:13:28;;;;;;;2.80;1.40;;;;;;;10.97;53.54;95954.95;106878;1252;24690;-78
2023/11/09 10:15:58;;;;;;;1.80;1.00;;;;;;;11.24;52.65;95950.32;106729;1274;22537;-77
2023/11/09 10:18:28;;;;;;;2.70;1.50;;;;;;;11.43;51.64;95948.96;106801;1275;22530;-78
2023/11/09 10:20:59;;;;;;;3.50;1.20;;;;;;;12.13;52.90;95947.40;106833;1275;22532;-79
2023/11/09 10:23:27;;;;;;;2.20;1.50;;;;;;;12.50;50.41;95948.45;106746;1274;24173;-78
2023/11/09 10:25:59;;;;;;;3.70;2.30;;;;;;;12.32;51.18;95948.27;106888;1274;22529;-77
2023/11/09 10:28:32;;;;;;;6.90;3.10;;;;;;;12.00;50.91;95955.94;107125;1274;24255;-78
2023/11/09 10:31:01;;;;;;;10.60;2.90;;;;;;;11.75;51.83;95955.84;106831;1274;22534;-78
2023/11/09 10:33:32;;;;;;;2.90;1.50;;;;;;;12.08;52.00;95950.86;106829;1274;24518;-78
2023/11/09 10:36:04;;;;;;;2.70;1.00;;;;;;;12.51;50.68;95948.61;106712;1274;22530;-77
2023/11/09 10:38:33;;;;;;;1.90;0.80;;;;;;;13.06;49.72;95936.83;106751;1275;25506;-77
2023/11/09 10:41:05;;;;;;;1.30;0.80;;;;;;;13.47;48.74;95932.38;106729;1274;22538;-77
2023/11/09 10:43:59;;;;;;;6.00;3.40;;;;;;;13.73;47.84;95925.52;106718;1274;24223;-77
2023/11/09 10:46:37;;;;;;;5.30;3.20;;;;;;;13.82;46.52;95921.04;106467;1274;247973;-78
2023/11/09 10:49:07;;;;;;;1.60;0.50;;;;;;;14.39;46.75;95921.98;106827;1275;24275;-77
2023/11/09 10:51:37;;;;;;;17.50;13.70;;;;;;;15.03;43.76;95920.29;106751;1274;22538;-78
2023/11/09 10:54:08;;;;;;;3.10;2.00;;;;;;;15.40;43.50;95919.67;106730;1274;22537;-78
2023/11/09 10:56:36;;;;;;;2.40;1.00;;;;;;;15.92;43.43;95916.02;106644;1274;24413;-78
2023/11/09 10:59:05;;;;;;;2.10;0.60;;;;;;;16.18;40.95;95908.55;106674;1274;22606;-78
2023/11/09 11:01:36;;;;;;;1.90;0.80;;;;;;;16.08;41.07;95913.70;106715;1274;22517;-78
2023/11/09 11:04:09;;;;;;;6.80;4.60;;;;;;;15.97;39.97;95915.65;106798;1274;25344;-78
2023/11/09 11:06:42;;;;;;;;;;;;;;;15.83;40.07;95915.08;106679;1274;25307;-78
2023/11/09 11:09:18;;;;;;;6.50;0.80;;;;;;;16.19;41.33;95907.27;106791;1275;25542;-78
2023/11/09 11:11:47;;;;;;;1.50;0.60;;;;;;;16.79;38.91;95907.38;106739;1274;23809;-78
2023/11/09 11:14:20;;;;;;;1.20;0.60;;;;;;;17.15;38.11;95904.96;106686;1274;22652;-78
2023/11/09 11:17:13;;;;;;;1.40;0.50;;;;;;;17.41;37.64;95902.14;106745;1274;24305;-78
2023/11/09 11:20:17;;;;;;;1.30;0.50;;;;;;;17.87;37.43;95900.27;106811;1274;22633;-79
2023/11/09 11:23:01;;;;;;;0.90;0.70;;;;;;;18.01;34.81;95899.13;106678;1275;23899;-78
2023/11/09 11:25:40;;;;;;;1.70;0.40;;;;;;;18.15;34.02;95899.23;106996;1274;22652;-78
2023/11/09 11:28:11;;;;;;;1.20;0.40;;;;;;;18.28;33.25;95902.39;106927;1275;24348;-78
2023/11/09 11:30:40;;;;;;;2.00;0.70;;;;;;;18.50;32.84;95904.30;106766;1275;24265;-78
2023/11/09 11:33:14;;;;;;;0.90;0.60;;;;;;;18.57;33.38;95900.77;106724;1274;22601;-79
2023/11/09 11:35:48;;;;;;;2.10;1.90;;;;;;;18.29;34.16;95900.04;106546;1274;22535;-79
2023/11/09 11:38:22;;;;;;;2.10;1.90;;;;;;;18.37;33.57;95898.81;106782;1275;22671;-79
2023/11/09 11:41:00;;;;;;;2.10;1.90;;;;;;;18.81;33.96;95893.64;106773;1274;22534;-79
2023/11/09 11:43:41;;;;;;;2.10;1.00;;;;;;;19.24;33.29;95896.27;106669;1274;22526;-79